sensor_id;sensor_type;location;lat;lon;timestamp;P1;durP1;ratioP1;P2;durP2;ratioP2
59145;SDS011;44928;53.074;6.646;2023-04-25T00:01:29;13.57;;;3.10;;
59145;SDS011;44928;53.074;6.646;2023-04-25T00:03:54;13.68;;;3.92;;
59145;SDS011;44928;53.074;6.646;2023-04-25T00:06:20;18.42;;;3.47;;
59145;SDS011;44928;53.074;6.646;2023-04-25T00:08:46;18.60;;;3.70;;
59145;SDS011;44928;53.074;6.646;2023-04-25T00:11:12;14.55;;;3.63;;
59145;SDS011;44928;53.074;6.646;2023-04-25T00:13:38;15.20;;;3.63;;
59145;SDS011;44928;53.074;6.646;2023-04-25T00:16:06;15.60;;;3.38;;
59145;SDS011;44928;53.074;6.646;2023-04-25T00:18:33;20.70;;;3.67;;
59145;SDS011;44928;53.074;6.646;2023-04-25T00:20:58;18.17;;;3.53;;
59145;SDS011;44928;53.074;6.646;2023-04-25T00:23:25;15.95;;;3.42;;
59145;SDS011;44928;53.074;6.646;2023-04-25T00:25:51;17.52;;;3.05;;
59145;SDS011;44928;53.074;6.646;2023-04-25T00:28:17;13.43;;;3.08;;
59145;SDS011;44928;53.074;6.646;2023-04-25T00:30:43;17.13;;;3.55;;
59145;SDS011;44928;53.074;6.646;2023-04-25T00:33:09;15.82;;;3.42;;
59145;SDS011;44928;53.074;6.646;2023-04-25T00:35:35;19.55;;;3.28;;
59145;SDS011;44928;53.074;6.646;2023-04-25T00:38:01;19.80;;;3.97;;
59145;SDS011;44928;53.074;6.646;2023-04-25T00:40:27;14.40;;;3.47;;
59145;SDS011;44928;53.074;6.646;2023-04-25T00:42:53;16.30;;;3.65;;
59145;SDS011;44928;53.074;6.646;2023-04-25T00:45:19;16.95;;;3.45;;
59145;SDS011;44928;53.074;6.646;2023-04-25T00:47:45;16.08;;;3.97;;
59145;SDS011;44928;53.074;6.646;2023-04-25T00:50:12;20.92;;;3.78;;
59145;SDS011;44928;53.074;6.646;2023-04-25T00:52:39;20.60;;;3.78;;
59145;SDS011;44928;53.074;6.646;2023-04-25T00:55:08;18.27;;;3.55;;
59145;SDS011;44928;53.074;6.646;2023-04-25T00:57:35;17.58;;;3.30;;
59145;SDS011;44928;53.074;6.646;2023-04-25T01:00:02;17.48;;;3.83;;
59145;SDS011;44928;53.074;6.646;2023-04-25T01:02:30;17.02;;;3.67;;
59145;SDS011;44928;53.074;6.646;2023-04-25T01:04:57;16.75;;;3.20;;
59145;SDS011;44928;53.074;6.646;2023-04-25T01:07:23;19.30;;;3.30;;
59145;SDS011;44928;53.074;6.646;2023-04-25T01:09:51;15.10;;;3.42;;
59145;SDS011;44928;53.074;6.646;2023-04-25T01:12:17;14.90;;;2.80;;
59145;SDS011;44928;53.074;6.646;2023-04-25T01:14:43;16.05;;;3.30;;
59145;SDS011;44928;53.074;6.646;2023-04-25T01:17:10;18.92;;;3.63;;
59145;SDS011;44928;53.074;6.646;2023-04-25T01:19:36;16.83;;;3.67;;
59145;SDS011;44928;53.074;6.646;2023-04-25T01:22:02;21.25;;;3.55;;
59145;SDS011;44928;53.074;6.646;2023-04-25T01:24:29;14.77;;;3.08;;
59145;SDS011;44928;53.074;6.646;2023-04-25T01:26:56;16.02;;;3.20;;
59145;SDS011;44928;53.074;6.646;2023-04-25T01:29:24;11.82;;;2.75;;
59145;SDS011;44928;53.074;6.646;2023-04-25T01:31:51;17.77;;;3.70;;
59145;SDS011;44928;53.074;6.646;2023-04-25T01:34:17;14.23;;;2.60;;
59145;SDS011;44928;53.074;6.646;2023-04-25T01:36:43;14.63;;;3.58;;
59145;SDS011;44928;53.074;6.646;2023-04-25T01:39:09;12.20;;;2.75;;
59145;SDS011;44928;53.074;6.646;2023-04-25T01:41:35;14.10;;;3.03;;
59145;SDS011;44928;53.074;6.646;2023-04-25T01:44:02;13.23;;;3.03;;
59145;SDS011;44928;53.074;6.646;2023-04-25T01:46:28;12.80;;;2.90;;
59145;SDS011;44928;53.074;6.646;2023-04-25T01:48:54;13.65;;;3.05;;
59145;SDS011;44928;53.074;6.646;2023-04-25T01:51:20;12.95;;;3.30;;
59145;SDS011;44928;53.074;6.646;2023-04-25T01:53:46;18.23;;;3.72;;
59145;SDS011;44928;53.074;6.646;2023-04-25T01:56:12;14.85;;;2.47;;
59145;SDS011;44928;53.074;6.646;2023-04-25T01:58:37;18.70;;;2.58;;
59145;SDS011;44928;53.074;6.646;2023-04-25T02:01:03;12.20;;;1.95;;
59145;SDS011;44928;53.074;6.646;2023-04-25T02:03:30;12.75;;;2.33;;
59145;SDS011;44928;53.074;6.646;2023-04-25T02:05:56;15.13;;;2.75;;
59145;SDS011;44928;53.074;6.646;2023-04-25T02:08:22;12.20;;;2.35;;
59145;SDS011;44928;53.074;6.646;2023-04-25T02:10:48;13.70;;;2.60;;
59145;SDS011;44928;53.074;6.646;2023-04-25T02:13:14;11.65;;;2.22;;
59145;SDS011;44928;53.074;6.646;2023-04-25T02:15:40;9.30;;;2.25;;
59145;SDS011;44928;53.074;6.646;2023-04-25T02:18:06;17.25;;;3.50;;
59145;SDS011;44928;53.074;6.646;2023-04-25T02:20:32;16.17;;;2.30;;
59145;SDS011;44928;53.074;6.646;2023-04-25T02:22:58;21.08;;;4.00;;
59145;SDS011;44928;53.074;6.646;2023-04-25T02:25:24;9.32;;;1.95;;
59145;SDS011;44928;53.074;6.646;2023-04-25T02:27:50;14.50;;;2.15;;
59145;SDS011;44928;53.074;6.646;2023-04-25T02:30:16;15.73;;;2.63;;
59145;SDS011;44928;53.074;6.646;2023-04-25T02:32:42;14.43;;;3.08;;
59145;SDS011;44928;53.074;6.646;2023-04-25T02:35:08;11.07;;;2.55;;
59145;SDS011;44928;53.074;6.646;2023-04-25T02:37:35;12.80;;;2.47;;
59145;SDS011;44928;53.074;6.646;2023-04-25T02:40:01;14.95;;;2.90;;
59145;SDS011;44928;53.074;6.646;2023-04-25T02:42:29;11.15;;;2.25;;
59145;SDS011;44928;53.074;6.646;2023-04-25T02:44:54;10.25;;;1.90;;
59145;SDS011;44928;53.074;6.646;2023-04-25T02:47:20;14.48;;;2.65;;
59145;SDS011;44928;53.074;6.646;2023-04-25T02:49:46;17.92;;;2.65;;
59145;SDS011;44928;53.074;6.646;2023-04-25T02:52:12;13.85;;;2.30;;
59145;SDS011;44928;53.074;6.646;2023-04-25T02:54:39;9.38;;;1.88;;
59145;SDS011;44928;53.074;6.646;2023-04-25T02:57:05;14.40;;;2.55;;
59145;SDS011;44928;53.074;6.646;2023-04-25T02:59:31;12.38;;;2.38;;
59145;SDS011;44928;53.074;6.646;2023-04-25T03:01:57;12.25;;;2.03;;
59145;SDS011;44928;53.074;6.646;2023-04-25T03:04:23;14.30;;;2.72;;
59145;SDS011;44928;53.074;6.646;2023-04-25T03:06:49;11.75;;;2.88;;
59145;SDS011;44928;53.074;6.646;2023-04-25T03:09:16;12.57;;;2.63;;
59145;SDS011;44928;53.074;6.646;2023-04-25T03:11:41;13.68;;;2.30;;
59145;SDS011;44928;53.074;6.646;2023-04-25T03:14:09;12.35;;;3.05;;
59145;SDS011;44928;53.074;6.646;2023-04-25T03:16:35;16.10;;;3.53;;
59145;SDS011;44928;53.074;6.646;2023-04-25T03:19:01;13.25;;;2.72;;
59145;SDS011;44928;53.074;6.646;2023-04-25T03:21:28;12.05;;;1.98;;
59145;SDS011;44928;53.074;6.646;2023-04-25T03:23:54;14.52;;;2.25;;
59145;SDS011;44928;53.074;6.646;2023-04-25T03:26:20;14.25;;;2.53;;
59145;SDS011;44928;53.074;6.646;2023-04-25T03:28:45;13.40;;;2.42;;
59145;SDS011;44928;53.074;6.646;2023-04-25T03:31:11;14.25;;;2.42;;
59145;SDS011;44928;53.074;6.646;2023-04-25T03:33:37;11.50;;;1.85;;
59145;SDS011;44928;53.074;6.646;2023-04-25T03:36:03;10.80;;;2.13;;
59145;SDS011;44928;53.074;6.646;2023-04-25T03:38:29;12.60;;;2.40;;
59145;SDS011;44928;53.074;6.646;2023-04-25T03:40:54;12.35;;;2.65;;
59145;SDS011;44928;53.074;6.646;2023-04-25T03:43:21;13.35;;;2.30;;
59145;SDS011;44928;53.074;6.646;2023-04-25T03:45:47;13.45;;;2.40;;
59145;SDS011;44928;53.074;6.646;2023-04-25T03:48:13;12.20;;;2.50;;
59145;SDS011;44928;53.074;6.646;2023-04-25T03:50:38;10.40;;;1.80;;
59145;SDS011;44928;53.074;6.646;2023-04-25T03:53:04;13.82;;;2.53;;
59145;SDS011;44928;53.074;6.646;2023-04-25T03:55:30;12.73;;;2.63;;
59145;SDS011;44928;53.074;6.646;2023-04-25T03:57:57;15.45;;;2.47;;
59145;SDS011;44928;53.074;6.646;2023-04-25T04:00:23;12.02;;;2.45;;
59145;SDS011;44928;53.074;6.646;2023-04-25T04:02:50;12.75;;;2.38;;
59145;SDS011;44928;53.074;6.646;2023-04-25T04:05:15;10.75;;;2.20;;
59145;SDS011;44928;53.074;6.646;2023-04-25T04:07:41;14.27;;;2.00;;
59145;SDS011;44928;53.074;6.646;2023-04-25T04:10:10;11.43;;;2.08;;
59145;SDS011;44928;53.074;6.646;2023-04-25T04:12:37;10.82;;;2.33;;
59145;SDS011;44928;53.074;6.646;2023-04-25T04:15:04;14.32;;;2.60;;
59145;SDS011;44928;53.074;6.646;2023-04-25T04:17:31;11.13;;;2.10;;
59145;SDS011;44928;53.074;6.646;2023-04-25T04:19:57;13.98;;;2.55;;
59145;SDS011;44928;53.074;6.646;2023-04-25T04:22:23;13.55;;;2.65;;
59145;SDS011;44928;53.074;6.646;2023-04-25T04:24:49;10.40;;;2.08;;
59145;SDS011;44928;53.074;6.646;2023-04-25T04:27:17;12.15;;;2.40;;
59145;SDS011;44928;53.074;6.646;2023-04-25T04:29:44;11.88;;;1.70;;
59145;SDS011;44928;53.074;6.646;2023-04-25T04:32:11;15.05;;;2.25;;
59145;SDS011;44928;53.074;6.646;2023-04-25T04:34:37;16.85;;;2.15;;
59145;SDS011;44928;53.074;6.646;2023-04-25T04:37:04;12.77;;;2.20;;
59145;SDS011;44928;53.074;6.646;2023-04-25T04:39:32;10.93;;;1.70;;
59145;SDS011;44928;53.074;6.646;2023-04-25T04:41:58;12.75;;;2.53;;
59145;SDS011;44928;53.074;6.646;2023-04-25T04:44:24;12.85;;;2.30;;
59145;SDS011;44928;53.074;6.646;2023-04-25T04:46:50;11.45;;;2.45;;
59145;SDS011;44928;53.074;6.646;2023-04-25T04:49:16;8.50;;;1.83;;
59145;SDS011;44928;53.074;6.646;2023-04-25T04:51:42;12.35;;;2.55;;
59145;SDS011;44928;53.074;6.646;2023-04-25T04:54:12;14.65;;;2.22;;
59145;SDS011;44928;53.074;6.646;2023-04-25T04:56:38;11.25;;;2.22;;
59145;SDS011;44928;53.074;6.646;2023-04-25T04:59:04;10.95;;;2.20;;
59145;SDS011;44928;53.074;6.646;2023-04-25T05:01:30;10.73;;;2.53;;
59145;SDS011;44928;53.074;6.646;2023-04-25T05:03:56;15.65;;;3.10;;
59145;SDS011;44928;53.074;6.646;2023-04-25T05:06:25;16.33;;;2.65;;
59145;SDS011;44928;53.074;6.646;2023-04-25T05:08:52;14.27;;;2.17;;
59145;SDS011;44928;53.074;6.646;2023-04-25T05:11:18;16.10;;;3.05;;
59145;SDS011;44928;53.074;6.646;2023-04-25T05:13:44;13.20;;;2.72;;
59145;SDS011;44928;53.074;6.646;2023-04-25T05:16:11;14.55;;;2.35;;
59145;SDS011;44928;53.074;6.646;2023-04-25T05:18:37;16.10;;;2.35;;
59145;SDS011;44928;53.074;6.646;2023-04-25T05:21:04;12.20;;;2.80;;
59145;SDS011;44928;53.074;6.646;2023-04-25T05:23:30;15.88;;;2.53;;
59145;SDS011;44928;53.074;6.646;2023-04-25T05:25:57;12.35;;;2.20;;
59145;SDS011;44928;53.074;6.646;2023-04-25T05:28:23;15.85;;;2.72;;
59145;SDS011;44928;53.074;6.646;2023-04-25T05:30:49;12.27;;;2.10;;
59145;SDS011;44928;53.074;6.646;2023-04-25T05:33:15;15.18;;;2.30;;
59145;SDS011;44928;53.074;6.646;2023-04-25T05:35:41;12.35;;;2.38;;
59145;SDS011;44928;53.074;6.646;2023-04-25T05:38:07;14.75;;;2.75;;
59145;SDS011;44928;53.074;6.646;2023-04-25T05:40:33;12.18;;;2.10;;
59145;SDS011;44928;53.074;6.646;2023-04-25T05:42:59;10.45;;;2.22;;
59145;SDS011;44928;53.074;6.646;2023-04-25T05:45:25;11.85;;;2.67;;
59145;SDS011;44928;53.074;6.646;2023-04-25T05:47:51;10.98;;;2.08;;
59145;SDS011;44928;53.074;6.646;2023-04-25T05:50:17;10.57;;;1.88;;
59145;SDS011;44928;53.074;6.646;2023-04-25T05:52:42;11.95;;;2.40;;
59145;SDS011;44928;53.074;6.646;2023-04-25T05:55:08;13.07;;;1.90;;
59145;SDS011;44928;53.074;6.646;2023-04-25T05:57:34;10.10;;;2.20;;
59145;SDS011;44928;53.074;6.646;2023-04-25T06:00:00;11.88;;;2.08;;
59145;SDS011;44928;53.074;6.646;2023-04-25T06:02:26;15.43;;;2.10;;
59145;SDS011;44928;53.074;6.646;2023-04-25T06:04:52;10.10;;;2.38;;
59145;SDS011;44928;53.074;6.646;2023-04-25T06:07:20;11.10;;;2.10;;
59145;SDS011;44928;53.074;6.646;2023-04-25T06:09:46;13.70;;;2.08;;
59145;SDS011;44928;53.074;6.646;2023-04-25T06:12:12;15.27;;;2.65;;
59145;SDS011;44928;53.074;6.646;2023-04-25T06:14:38;16.58;;;2.22;;
59145;SDS011;44928;53.074;6.646;2023-04-25T06:17:04;11.98;;;2.20;;
59145;SDS011;44928;53.074;6.646;2023-04-25T06:19:33;9.75;;;1.95;;
59145;SDS011;44928;53.074;6.646;2023-04-25T06:22:00;13.80;;;2.00;;
59145;SDS011;44928;53.074;6.646;2023-04-25T06:24:26;12.02;;;2.55;;
59145;SDS011;44928;53.074;6.646;2023-04-25T06:26:52;14.77;;;2.50;;
59145;SDS011;44928;53.074;6.646;2023-04-25T06:29:19;8.82;;;1.92;;
59145;SDS011;44928;53.074;6.646;2023-04-25T06:31:44;11.75;;;2.15;;
59145;SDS011;44928;53.074;6.646;2023-04-25T06:34:10;11.77;;;1.67;;
59145;SDS011;44928;53.074;6.646;2023-04-25T06:36:36;8.60;;;1.67;;
59145;SDS011;44928;53.074;6.646;2023-04-25T06:39:02;13.27;;;1.95;;
59145;SDS011;44928;53.074;6.646;2023-04-25T06:41:28;10.73;;;2.22;;
59145;SDS011;44928;53.074;6.646;2023-04-25T06:43:53;11.48;;;2.03;;
59145;SDS011;44928;53.074;6.646;2023-04-25T06:46:19;9.63;;;2.05;;
59145;SDS011;44928;53.074;6.646;2023-04-25T06:48:45;8.40;;;1.63;;
59145;SDS011;44928;53.074;6.646;2023-04-25T06:51:11;10.77;;;1.88;;
59145;SDS011;44928;53.074;6.646;2023-04-25T06:53:38;10.13;;;1.95;;
59145;SDS011;44928;53.074;6.646;2023-04-25T06:56:05;16.77;;;3.25;;
59145;SDS011;44928;53.074;6.646;2023-04-25T06:58:31;12.52;;;2.65;;
59145;SDS011;44928;53.074;6.646;2023-04-25T07:00:57;13.32;;;2.05;;
59145;SDS011;44928;53.074;6.646;2023-04-25T07:03:22;10.52;;;1.70;;
59145;SDS011;44928;53.074;6.646;2023-04-25T07:05:49;8.30;;;1.73;;
59145;SDS011;44928;53.074;6.646;2023-04-25T07:08:15;8.95;;;1.63;;
59145;SDS011;44928;53.074;6.646;2023-04-25T07:10:42;11.20;;;1.95;;
59145;SDS011;44928;53.074;6.646;2023-04-25T07:13:07;8.82;;;1.48;;
59145;SDS011;44928;53.074;6.646;2023-04-25T07:15:33;10.85;;;2.05;;
59145;SDS011;44928;53.074;6.646;2023-04-25T07:17:59;10.23;;;1.50;;
59145;SDS011;44928;53.074;6.646;2023-04-25T07:20:25;7.35;;;1.50;;
59145;SDS011;44928;53.074;6.646;2023-04-25T07:22:52;7.10;;;1.40;;
59145;SDS011;44928;53.074;6.646;2023-04-25T07:25:19;10.73;;;1.50;;
59145;SDS011;44928;53.074;6.646;2023-04-25T07:27:45;11.88;;;1.38;;
59145;SDS011;44928;53.074;6.646;2023-04-25T07:30:11;10.73;;;1.70;;
59145;SDS011;44928;53.074;6.646;2023-04-25T07:32:38;8.95;;;1.50;;
59145;SDS011;44928;53.074;6.646;2023-04-25T07:35:04;10.30;;;1.33;;
59145;SDS011;44928;53.074;6.646;2023-04-25T07:37:32;7.20;;;1.25;;
59145;SDS011;44928;53.074;6.646;2023-04-25T07:40:02;6.55;;;1.13;;
59145;SDS011;44928;53.074;6.646;2023-04-25T07:42:29;7.97;;;1.48;;
59145;SDS011;44928;53.074;6.646;2023-04-25T07:44:55;7.30;;;1.00;;
59145;SDS011;44928;53.074;6.646;2023-04-25T07:47:21;6.60;;;1.15;;
59145;SDS011;44928;53.074;6.646;2023-04-25T07:49:47;6.57;;;1.27;;
59145;SDS011;44928;53.074;6.646;2023-04-25T07:52:12;9.60;;;1.40;;
59145;SDS011;44928;53.074;6.646;2023-04-25T07:54:38;5.82;;;1.08;;
59145;SDS011;44928;53.074;6.646;2023-04-25T07:57:04;8.73;;;1.75;;
59145;SDS011;44928;53.074;6.646;2023-04-25T07:59:31;9.65;;;1.38;;
59145;SDS011;44928;53.074;6.646;2023-04-25T08:01:57;10.60;;;1.10;;
59145;SDS011;44928;53.074;6.646;2023-04-25T08:04:23;10.30;;;1.65;;
59145;SDS011;44928;53.074;6.646;2023-04-25T08:06:50;12.27;;;1.85;;
59145;SDS011;44928;53.074;6.646;2023-04-25T08:09:17;10.32;;;1.40;;
59145;SDS011;44928;53.074;6.646;2023-04-25T08:11:43;7.10;;;1.00;;
59145;SDS011;44928;53.074;6.646;2023-04-25T08:14:09;9.13;;;1.58;;
59145;SDS011;44928;53.074;6.646;2023-04-25T08:16:35;7.78;;;1.10;;
59145;SDS011;44928;53.074;6.646;2023-04-25T08:19:00;9.68;;;1.35;;
59145;SDS011;44928;53.074;6.646;2023-04-25T08:21:26;7.53;;;1.10;;
59145;SDS011;44928;53.074;6.646;2023-04-25T08:23:52;8.18;;;1.40;;
59145;SDS011;44928;53.074;6.646;2023-04-25T08:26:18;11.18;;;2.15;;
59145;SDS011;44928;53.074;6.646;2023-04-25T08:28:44;8.02;;;1.20;;
59145;SDS011;44928;53.074;6.646;2023-04-25T08:31:09;8.32;;;1.35;;
59145;SDS011;44928;53.074;6.646;2023-04-25T08:33:35;5.82;;;1.05;;
59145;SDS011;44928;53.074;6.646;2023-04-25T08:36:01;3.38;;;1.10;;
59145;SDS011;44928;53.074;6.646;2023-04-25T08:38:27;8.70;;;1.20;;
59145;SDS011;44928;53.074;6.646;2023-04-25T08:40:53;2.83;;;0.70;;
59145;SDS011;44928;53.074;6.646;2023-04-25T08:43:21;2.78;;;0.73;;
59145;SDS011;44928;53.074;6.646;2023-04-25T08:45:49;3.95;;;1.08;;
59145;SDS011;44928;53.074;6.646;2023-04-25T08:48:19;6.53;;;1.38;;
59145;SDS011;44928;53.074;6.646;2023-04-25T08:50:49;5.95;;;1.30;;
59145;SDS011;44928;53.074;6.646;2023-04-25T08:55:46;6.68;;;0.88;;
59145;SDS011;44928;53.074;6.646;2023-04-25T08:58:14;4.10;;;0.68;;
59145;SDS011;44928;53.074;6.646;2023-04-25T09:00:41;4.47;;;0.77;;
59145;SDS011;44928;53.074;6.646;2023-04-25T09:03:07;4.95;;;0.70;;
59145;SDS011;44928;53.074;6.646;2023-04-25T09:05:33;2.55;;;0.70;;
59145;SDS011;44928;53.074;6.646;2023-04-25T09:08:00;5.10;;;1.15;;
59145;SDS011;44928;53.074;6.646;2023-04-25T09:10:27;6.32;;;0.98;;
59145;SDS011;44928;53.074;6.646;2023-04-25T09:13:06;3.72;;;0.88;;
59145;SDS011;44928;53.074;6.646;2023-04-25T09:15:49;4.43;;;1.00;;
59145;SDS011;44928;53.074;6.646;2023-04-25T09:18:32;4.47;;;0.80;;
59145;SDS011;44928;53.074;6.646;2023-04-25T09:21:06;3.85;;;0.77;;
59145;SDS011;44928;53.074;6.646;2023-04-25T09:23:40;4.57;;;1.13;;
59145;SDS011;44928;53.074;6.646;2023-04-25T09:26:07;7.38;;;1.15;;
59145;SDS011;44928;53.074;6.646;2023-04-25T09:28:34;5.32;;;1.05;;
59145;SDS011;44928;53.074;6.646;2023-04-25T09:31:00;5.60;;;0.90;;
59145;SDS011;44928;53.074;6.646;2023-04-25T09:33:32;8.93;;;1.73;;
59145;SDS011;44928;53.074;6.646;2023-04-25T09:36:06;5.18;;;1.17;;
59145;SDS011;44928;53.074;6.646;2023-04-25T09:38:40;7.85;;;1.20;;
59145;SDS011;44928;53.074;6.646;2023-04-25T09:41:08;9.18;;;1.30;;
59145;SDS011;44928;53.074;6.646;2023-04-25T09:43:35;4.55;;;1.15;;
59145;SDS011;44928;53.074;6.646;2023-04-25T09:46:01;9.18;;;1.60;;
59145;SDS011;44928;53.074;6.646;2023-04-25T09:48:28;8.50;;;2.13;;
59145;SDS011;44928;53.074;6.646;2023-04-25T09:51:13;9.43;;;1.90;;
59145;SDS011;44928;53.074;6.646;2023-04-25T09:53:39;6.45;;;1.67;;
59145;SDS011;44928;53.074;6.646;2023-04-25T09:56:08;8.52;;;1.35;;
59145;SDS011;44928;53.074;6.646;2023-04-25T09:58:39;8.18;;;1.63;;
59145;SDS011;44928;53.074;6.646;2023-04-25T10:01:06;10.27;;;1.73;;
59145;SDS011;44928;53.074;6.646;2023-04-25T10:03:34;7.43;;;1.30;;
59145;SDS011;44928;53.074;6.646;2023-04-25T10:06:02;7.85;;;1.40;;
59145;SDS011;44928;53.074;6.646;2023-04-25T10:08:32;7.78;;;1.77;;
59145;SDS011;44928;53.074;6.646;2023-04-25T10:11:00;10.43;;;1.95;;
59145;SDS011;44928;53.074;6.646;2023-04-25T10:13:29;9.48;;;2.30;;
59145;SDS011;44928;53.074;6.646;2023-04-25T10:15:59;8.63;;;1.80;;
59145;SDS011;44928;53.074;6.646;2023-04-25T10:20:54;10.10;;;1.27;;
59145;SDS011;44928;53.074;6.646;2023-04-25T10:23:21;5.20;;;1.00;;
59145;SDS011;44928;53.074;6.646;2023-04-25T10:25:48;8.82;;;1.35;;
59145;SDS011;44928;53.074;6.646;2023-04-25T10:28:19;7.82;;;1.40;;
59145;SDS011;44928;53.074;6.646;2023-04-25T10:30:58;6.93;;;1.02;;
59145;SDS011;44928;53.074;6.646;2023-04-25T10:33:35;8.25;;;1.27;;
59145;SDS011;44928;53.074;6.646;2023-04-25T10:36:11;9.32;;;1.40;;
59145;SDS011;44928;53.074;6.646;2023-04-25T10:38:40;10.48;;;1.30;;
59145;SDS011;44928;53.074;6.646;2023-04-25T10:41:08;8.52;;;1.30;;
59145;SDS011;44928;53.074;6.646;2023-04-25T10:46:22;9.77;;;1.52;;
59145;SDS011;44928;53.074;6.646;2023-04-25T10:48:53;7.72;;;1.42;;
59145;SDS011;44928;53.074;6.646;2023-04-25T10:53:57;7.47;;;1.73;;
59145;SDS011;44928;53.074;6.646;2023-04-25T10:56:27;8.20;;;1.30;;
59145;SDS011;44928;53.074;6.646;2023-04-25T10:59:07;9.15;;;1.83;;
59145;SDS011;44928;53.074;6.646;2023-04-25T11:01:37;6.75;;;1.42;;
59145;SDS011;44928;53.074;6.646;2023-04-25T11:04:05;7.35;;;1.73;;
59145;SDS011;44928;53.074;6.646;2023-04-25T11:08:57;13.88;;;1.60;;
59145;SDS011;44928;53.074;6.646;2023-04-25T11:11:26;10.25;;;1.65;;
59145;SDS011;44928;53.074;6.646;2023-04-25T11:13:52;13.30;;;2.28;;
59145;SDS011;44928;53.074;6.646;2023-04-25T11:16:17;11.63;;;1.95;;
59145;SDS011;44928;53.074;6.646;2023-04-25T11:18:43;9.85;;;1.40;;
59145;SDS011;44928;53.074;6.646;2023-04-25T11:21:10;9.50;;;1.63;;
59145;SDS011;44928;53.074;6.646;2023-04-25T11:23:36;7.70;;;1.38;;
59145;SDS011;44928;53.074;6.646;2023-04-25T11:26:03;9.20;;;1.73;;
59145;SDS011;44928;53.074;6.646;2023-04-25T11:28:29;11.18;;;2.55;;
59145;SDS011;44928;53.074;6.646;2023-04-25T11:30:55;9.60;;;2.28;;
59145;SDS011;44928;53.074;6.646;2023-04-25T11:33:24;5.53;;;1.33;;
59145;SDS011;44928;53.074;6.646;2023-04-25T11:35:53;8.77;;;1.50;;
59145;SDS011;44928;53.074;6.646;2023-04-25T11:38:21;5.13;;;1.30;;
59145;SDS011;44928;53.074;6.646;2023-04-25T11:40:54;10.23;;;1.57;;
59145;SDS011;44928;53.074;6.646;2023-04-25T11:43:20;5.93;;;1.05;;
59145;SDS011;44928;53.074;6.646;2023-04-25T11:45:50;8.93;;;1.60;;
59145;SDS011;44928;53.074;6.646;2023-04-25T11:48:17;6.63;;;1.30;;
59145;SDS011;44928;53.074;6.646;2023-04-25T11:50:44;9.02;;;1.25;;
59145;SDS011;44928;53.074;6.646;2023-04-25T11:53:10;8.63;;;1.98;;
59145;SDS011;44928;53.074;6.646;2023-04-25T11:55:36;7.35;;;1.40;;
59145;SDS011;44928;53.074;6.646;2023-04-25T11:58:03;9.57;;;1.20;;
59145;SDS011;44928;53.074;6.646;2023-04-25T12:00:29;8.70;;;1.33;;
59145;SDS011;44928;53.074;6.646;2023-04-25T12:02:56;6.63;;;1.38;;
59145;SDS011;44928;53.074;6.646;2023-04-25T12:05:24;6.57;;;1.08;;
59145;SDS011;44928;53.074;6.646;2023-04-25T12:07:51;6.97;;;1.73;;
59145;SDS011;44928;53.074;6.646;2023-04-25T12:10:17;9.05;;;1.35;;
59145;SDS011;44928;53.074;6.646;2023-04-25T12:12:47;7.70;;;1.35;;
59145;SDS011;44928;53.074;6.646;2023-04-25T12:15:14;5.55;;;0.90;;
59145;SDS011;44928;53.074;6.646;2023-04-25T12:17:44;6.45;;;1.23;;
59145;SDS011;44928;53.074;6.646;2023-04-25T12:20:17;6.95;;;1.27;;
59145;SDS011;44928;53.074;6.646;2023-04-25T12:22:48;7.45;;;0.90;;
59145;SDS011;44928;53.074;6.646;2023-04-25T12:31:04;10.88;;;1.77;;
59145;SDS011;44928;53.074;6.646;2023-04-25T12:33:32;7.65;;;1.50;;
59145;SDS011;44928;53.074;6.646;2023-04-25T12:35:59;8.50;;;1.45;;
59145;SDS011;44928;53.074;6.646;2023-04-25T12:38:31;8.60;;;1.73;;
59145;SDS011;44928;53.074;6.646;2023-04-25T12:41:00;8.43;;;1.10;;
59145;SDS011;44928;53.074;6.646;2023-04-25T12:43:26;6.80;;;1.30;;
59145;SDS011;44928;53.074;6.646;2023-04-25T12:45:53;9.32;;;1.70;;
59145;SDS011;44928;53.074;6.646;2023-04-25T12:48:20;9.45;;;1.52;;
59145;SDS011;44928;53.074;6.646;2023-04-25T12:50:46;10.15;;;1.88;;
59145;SDS011;44928;53.074;6.646;2023-04-25T12:53:23;7.68;;;1.40;;
59145;SDS011;44928;53.074;6.646;2023-04-25T12:55:49;7.05;;;1.20;;
59145;SDS011;44928;53.074;6.646;2023-04-25T12:58:16;8.68;;;1.42;;
59145;SDS011;44928;53.074;6.646;2023-04-25T13:00:43;10.07;;;1.30;;
59145;SDS011;44928;53.074;6.646;2023-04-25T13:03:10;7.25;;;1.27;;
59145;SDS011;44928;53.074;6.646;2023-04-25T13:05:36;9.57;;;1.75;;
59145;SDS011;44928;53.074;6.646;2023-04-25T13:08:02;6.60;;;1.40;;
59145;SDS011;44928;53.074;6.646;2023-04-25T13:10:29;8.07;;;1.20;;
59145;SDS011;44928;53.074;6.646;2023-04-25T13:12:55;4.60;;;0.90;;
59145;SDS011;44928;53.074;6.646;2023-04-25T13:15:20;5.72;;;1.10;;
59145;SDS011;44928;53.074;6.646;2023-04-25T13:17:47;7.80;;;1.30;;
59145;SDS011;44928;53.074;6.646;2023-04-25T13:20:12;9.18;;;1.52;;
59145;SDS011;44928;53.074;6.646;2023-04-25T13:22:40;7.43;;;1.42;;
59145;SDS011;44928;53.074;6.646;2023-04-25T13:25:07;9.43;;;1.17;;
59145;SDS011;44928;53.074;6.646;2023-04-25T13:27:33;7.97;;;1.45;;
59145;SDS011;44928;53.074;6.646;2023-04-25T13:30:01;9.23;;;1.38;;
59145;SDS011;44928;53.074;6.646;2023-04-25T13:32:33;7.90;;;1.70;;
59145;SDS011;44928;53.074;6.646;2023-04-25T13:35:01;9.63;;;1.55;;
59145;SDS011;44928;53.074;6.646;2023-04-25T13:37:27;8.77;;;1.50;;
59145;SDS011;44928;53.074;6.646;2023-04-25T13:39:54;13.25;;;1.58;;
59145;SDS011;44928;53.074;6.646;2023-04-25T13:42:21;7.85;;;1.50;;
59145;SDS011;44928;53.074;6.646;2023-04-25T13:44:48;11.75;;;2.13;;
59145;SDS011;44928;53.074;6.646;2023-04-25T13:47:14;7.88;;;1.40;;
59145;SDS011;44928;53.074;6.646;2023-04-25T13:49:39;7.20;;;1.30;;
59145;SDS011;44928;53.074;6.646;2023-04-25T13:52:05;9.15;;;1.48;;
59145;SDS011;44928;53.074;6.646;2023-04-25T13:54:31;8.27;;;1.58;;
59145;SDS011;44928;53.074;6.646;2023-04-25T13:56:57;10.68;;;1.73;;
59145;SDS011;44928;53.074;6.646;2023-04-25T13:59:24;9.60;;;2.03;;
59145;SDS011;44928;53.074;6.646;2023-04-25T14:01:51;5.05;;;1.17;;
59145;SDS011;44928;53.074;6.646;2023-04-25T14:04:17;4.63;;;1.00;;
59145;SDS011;44928;53.074;6.646;2023-04-25T14:06:42;5.28;;;1.25;;
59145;SDS011;44928;53.074;6.646;2023-04-25T14:09:08;5.00;;;0.90;;
59145;SDS011;44928;53.074;6.646;2023-04-25T14:11:38;5.43;;;0.90;;
59145;SDS011;44928;53.074;6.646;2023-04-25T14:14:04;6.20;;;1.00;;
59145;SDS011;44928;53.074;6.646;2023-04-25T14:16:30;5.53;;;1.10;;
59145;SDS011;44928;53.074;6.646;2023-04-25T14:18:59;9.07;;;1.20;;
59145;SDS011;44928;53.074;6.646;2023-04-25T14:21:26;9.65;;;1.30;;
59145;SDS011;44928;53.074;6.646;2023-04-25T14:23:53;8.65;;;1.35;;
59145;SDS011;44928;53.074;6.646;2023-04-25T14:26:19;6.32;;;1.35;;
59145;SDS011;44928;53.074;6.646;2023-04-25T14:28:45;7.78;;;1.67;;
59145;SDS011;44928;53.074;6.646;2023-04-25T14:31:11;7.38;;;1.30;;
59145;SDS011;44928;53.074;6.646;2023-04-25T14:33:36;6.07;;;1.27;;
59145;SDS011;44928;53.074;6.646;2023-04-25T14:36:06;6.68;;;1.20;;
59145;SDS011;44928;53.074;6.646;2023-04-25T14:38:32;8.35;;;1.20;;
59145;SDS011;44928;53.074;6.646;2023-04-25T14:40:58;7.97;;;1.38;;
59145;SDS011;44928;53.074;6.646;2023-04-25T14:43:24;8.15;;;1.35;;
59145;SDS011;44928;53.074;6.646;2023-04-25T14:45:50;7.80;;;1.50;;
59145;SDS011;44928;53.074;6.646;2023-04-25T14:48:16;8.40;;;1.52;;
59145;SDS011;44928;53.074;6.646;2023-04-25T14:50:44;8.10;;;1.38;;
59145;SDS011;44928;53.074;6.646;2023-04-25T14:53:11;6.88;;;1.50;;
59145;SDS011;44928;53.074;6.646;2023-04-25T14:55:37;7.13;;;1.23;;
59145;SDS011;44928;53.074;6.646;2023-04-25T14:58:03;10.10;;;2.45;;